WZZ1779 EKBI-EPGD
Flight info
| Callsign | WZZ1779 |
|---|---|
| Flight time | 0h 57m |
| Altitude | 37000 |
| Route | RIDSI DCT RUMAR L983 DOMAG T240 OGDAV |
| Aircraft | A321/M-SDE1E2E3FGIJ1J4RWXY/LB1 |
Departure
| Time | 2025-10-10 10:36 |
|---|---|
| Airport | Billund Airport (EKBI) |
Arrival
| Time | 2025-10-10 11:33 |
|---|---|
| Airport | Gdańsk Lech Wałęsa Airport (EPGD) |
| Time | Latitude | Longitude | Altitude | Speed | Heading |
|---|---|---|---|---|---|
| 2025-10-10 10:02 | 55.74540 | 9.15012 | 216 ft | 0 kts | 356° |
| 2025-10-10 10:24 | 55.74520 | 9.15014 | 222 ft | 3 kts | 357° |
| 2025-10-10 10:25 | 55.74463 | 9.15033 | 221 ft | 3 kts | 312° |
| 2025-10-10 10:25 | 55.74457 | 9.15079 | 216 ft | 2 kts | 267° |
| 2025-10-10 10:26 | 55.74458 | 9.15083 | 216 ft | 1 kts | 267° |
| 2025-10-10 10:29 | 55.74457 | 9.15076 | 216 ft | 1 kts | 267° |
| 2025-10-10 10:29 | 55.74381 | 9.14982 | 223 ft | 10 kts | 178° |
| 2025-10-10 10:30 | 55.74235 | 9.14996 | 218 ft | 9 kts | 174° |
| 2025-10-10 10:30 | 55.74201 | 9.15184 | 216 ft | 12 kts | 86° |
| 2025-10-10 10:31 | 55.74207 | 9.15379 | 216 ft | 19 kts | 87° |
| 2025-10-10 10:31 | 55.74225 | 9.15968 | 221 ft | 26 kts | 86° |
| 2025-10-10 10:32 | 55.74246 | 9.16637 | 216 ft | 28 kts | 86° |
| 2025-10-10 10:32 | 55.74265 | 9.17248 | 216 ft | 25 kts | 86° |
| 2025-10-10 10:33 | 55.74284 | 9.17863 | 216 ft | 22 kts | 86° |
| 2025-10-10 10:33 | 55.74139 | 9.18132 | 216 ft | 11 kts | 212° |
| 2025-10-10 10:34 | 55.74100 | 9.17275 | 216 ft | 94 kts | 267° |
| 2025-10-10 10:34 | 55.74000 | 9.13716 | 725 ft | 165 kts | 269° |
| 2025-10-10 10:35 | 55.75222 | 9.10431 | 1759 ft | 199 kts | 340° |
| 2025-10-10 10:35 | 55.76731 | 9.10669 | 1960 ft | 246 kts | 18° |
| 2025-10-10 10:36 | 55.79500 | 9.14615 | 3814 ft | 261 kts | 37° |
| 2025-10-10 10:36 | 55.81306 | 9.20328 | 5449 ft | 290 kts | 80° |
| 2025-10-10 10:37 | 55.80029 | 9.27371 | 6904 ft | 313 kts | 114° |
| 2025-10-10 10:37 | 55.76991 | 9.37847 | 9210 ft | 322 kts | 113° |
| 2025-10-10 10:38 | 55.74947 | 9.45002 | 10583 ft | 333 kts | 112° |
| 2025-10-10 10:38 | 55.72720 | 9.52815 | 11032 ft | 373 kts | 113° |
| 2025-10-10 10:39 | 55.71525 | 9.56974 | 11646 ft | 381 kts | 113° |
| 2025-10-10 10:39 | 55.69077 | 9.65436 | 12954 ft | 391 kts | 113° |
| 2025-10-10 10:40 | 55.66551 | 9.74131 | 14196 ft | 403 kts | 113° |
| 2025-10-10 10:40 | 55.63950 | 9.83056 | 15392 ft | 411 kts | 113° |
| 2025-10-10 10:41 | 55.61312 | 9.92066 | 16674 ft | 419 kts | 113° |
| 2025-10-10 10:41 | 55.58695 | 10.06604 | 18527 ft | 414 kts | 89° |
| 2025-10-10 10:42 | 55.58142 | 10.15129 | 19531 ft | 419 kts | 90° |
| 2025-10-10 10:42 | 55.57796 | 10.20254 | 20114 ft | 421 kts | 90° |
| 2025-10-10 10:43 | 55.57085 | 10.30604 | 21281 ft | 427 kts | 90° |
| 2025-10-10 10:43 | 55.56356 | 10.41074 | 22435 ft | 433 kts | 91° |
| 2025-10-10 10:44 | 55.55618 | 10.51621 | 23518 ft | 438 kts | 91° |
| 2025-10-10 10:44 | 55.54860 | 10.62375 | 24436 ft | 444 kts | 91° |
| 2025-10-10 10:46 | 55.51203 | 11.12238 | 28078 ft | 467 kts | 91° |
| 2025-10-10 10:48 | 55.48089 | 11.52563 | 30631 ft | 483 kts | 90° |
| 2025-10-10 10:50 | 55.44257 | 11.99804 | 33716 ft | 485 kts | 90° |
| 2025-10-10 10:52 | 55.39837 | 12.51830 | 36658 ft | 482 kts | 91° |
| 2025-10-10 10:54 | 55.36266 | 12.91982 | 37249 ft | 482 kts | 91° |
| 2025-10-10 10:56 | 55.31950 | 13.38556 | 37281 ft | 484 kts | 91° |
| 2025-10-10 10:58 | 55.27440 | 13.85151 | 37232 ft | 486 kts | 92° |
| 2025-10-10 11:00 | 55.22725 | 14.31858 | 37235 ft | 487 kts | 92° |
| 2025-10-10 11:02 | 55.17829 | 14.78614 | 37229 ft | 489 kts | 92° |
| 2025-10-10 11:04 | 55.12729 | 15.25335 | 37223 ft | 490 kts | 92° |
| 2025-10-10 11:06 | 55.07453 | 15.72086 | 36028 ft | 493 kts | 92° |
| 2025-10-10 11:08 | 55.03011 | 16.18217 | 31813 ft | 461 kts | 82° |
| 2025-10-10 11:10 | 55.01425 | 16.66301 | 27761 ft | 420 kts | 81° |
| 2025-10-10 11:12 | 55.00194 | 17.00602 | 25023 ft | 395 kts | 82° |
| 2025-10-10 11:13 | 54.99467 | 17.19546 | 23341 ft | 389 kts | 82° |
| 2025-10-10 11:14 | 54.99095 | 17.28874 | 22483 ft | 382 kts | 83° |
| 2025-10-10 11:14 | 54.98910 | 17.33471 | 22059 ft | 379 kts | 83° |
| 2025-10-10 11:14 | 54.98537 | 17.42559 | 21231 ft | 374 kts | 83° |
| 2025-10-10 11:15 | 54.98162 | 17.51518 | 20397 ft | 368 kts | 83° |
| 2025-10-10 11:15 | 54.97787 | 17.60354 | 19577 ft | 364 kts | 83° |
| 2025-10-10 11:16 | 54.96507 | 17.69033 | 18743 ft | 384 kts | 110° |
| 2025-10-10 11:16 | 54.93133 | 17.76456 | 17801 ft | 396 kts | 129° |
| 2025-10-10 11:17 | 54.87441 | 17.86717 | 16443 ft | 390 kts | 129° |
| 2025-10-10 11:18 | 54.83706 | 17.93484 | 15575 ft | 386 kts | 129° |
| 2025-10-10 11:18 | 54.80039 | 17.99965 | 15104 ft | 373 kts | 135° |
| 2025-10-10 11:18 | 54.77993 | 18.02722 | 14740 ft | 372 kts | 140° |
| 2025-10-10 11:19 | 54.73888 | 18.08071 | 14033 ft | 367 kts | 140° |
| 2025-10-10 11:19 | 54.69831 | 18.13331 | 13266 ft | 363 kts | 140° |
| 2025-10-10 11:20 | 54.66089 | 18.19013 | 12516 ft | 353 kts | 127° |
| 2025-10-10 11:20 | 54.62837 | 18.25263 | 11818 ft | 347 kts | 128° |
| 2025-10-10 11:21 | 54.58046 | 18.34419 | 10813 ft | 338 kts | 129° |
| 2025-10-10 11:21 | 54.56475 | 18.37413 | 10499 ft | 335 kts | 129° |
| 2025-10-10 11:22 | 54.53372 | 18.43307 | 9830 ft | 329 kts | 130° |
| 2025-10-10 11:22 | 54.50312 | 18.49109 | 9103 ft | 324 kts | 129° |
| 2025-10-10 11:23 | 54.47310 | 18.54792 | 8485 ft | 317 kts | 130° |
| 2025-10-10 11:23 | 54.44391 | 18.60284 | 8060 ft | 302 kts | 130° |
| 2025-10-10 11:24 | 54.42027 | 18.65774 | 7697 ft | 275 kts | 108° |
| 2025-10-10 11:24 | 54.41278 | 18.68808 | 7295 ft | 270 kts | 108° |
| 2025-10-10 11:25 | 54.38396 | 18.80415 | 5166 ft | 272 kts | 110° |
| 2025-10-10 11:26 | 54.35588 | 18.84164 | 4481 ft | 256 kts | 172° |
| 2025-10-10 11:26 | 54.33870 | 18.84550 | 4338 ft | 241 kts | 179° |
| 2025-10-10 11:26 | 54.31014 | 18.82810 | 4045 ft | 214 kts | 233° |
| 2025-10-10 11:27 | 54.30002 | 18.78533 | 3776 ft | 189 kts | 279° |
| 2025-10-10 11:27 | 54.30843 | 18.74394 | 3533 ft | 184 kts | 296° |
| 2025-10-10 11:28 | 54.31345 | 18.72393 | 3411 ft | 180 kts | 296° |
| 2025-10-10 11:28 | 54.32686 | 18.67025 | 2769 ft | 149 kts | 296° |
| 2025-10-10 11:29 | 54.33833 | 18.62425 | 2219 ft | 133 kts | 296° |
| 2025-10-10 11:30 | 54.34545 | 18.59568 | 1873 ft | 128 kts | 297° |
| 2025-10-10 11:30 | 54.34893 | 18.58171 | 1692 ft | 128 kts | 297° |
| 2025-10-10 11:30 | 54.35582 | 18.55398 | 1330 ft | 126 kts | 298° |
| 2025-10-10 11:31 | 54.36268 | 18.52636 | 1000 ft | 128 kts | 296° |
| 2025-10-10 11:31 | 54.36969 | 18.49807 | 620 ft | 126 kts | 296° |
| 2025-10-10 11:32 | 54.37583 | 18.47333 | 463 ft | 71 kts | 292° |
| 2025-10-10 11:32 | 54.37753 | 18.46836 | 457 ft | 14 kts | 317° |
| 2025-10-10 11:33 | 54.37820 | 18.46746 | 458 ft | 9 kts | 323° |
| 2025-10-10 11:33 | 54.37959 | 18.46582 | 460 ft | 8 kts | 347° |
| 2025-10-10 11:34 | 54.38071 | 18.46590 | 460 ft | 7 kts | 304° |
| 2025-10-10 11:34 | 54.38118 | 18.46410 | 460 ft | 10 kts | 293° |
| 2025-10-10 11:35 | 54.38159 | 18.46245 | 460 ft | 1 kts | 293° |
| 2025-10-10 11:35 | 54.38185 | 18.46240 | 460 ft | 3 kts | 9° |
| 2025-10-10 11:36 | 54.38206 | 18.46252 | 460 ft | 0 kts | 19° |
| 2025-10-10 11:36 | 54.38209 | 18.46254 | 460 ft | 0 kts | 22° |